Time;durP1;ratioP1;P1;durP2;ratioP2;P2;SDS_P1;SDS_P2;PMS_P1;PMS_P2;Temp;Humidity;BMP_temperature;BMP_pressure;BME280_temperature;BME280_humidity;BME280_pressure;Samples;Min_cycle;Max_cycle;Signal;HPM_P1;HPM_P2
2022/03/03 00:01:45;;;;;;;8.50;5.20;;;;;;;4.19;55.05;100052.13;117071;1184;21900;-56
2022/03/03 00:04:14;;;;;;;9.90;5.30;;;;;;;4.15;55.04;100051.58;117416;1181;21845;-59
2022/03/03 00:06:42;;;;;;;9.20;5.60;;;;;;;4.11;55.15;100049.46;117372;1182;23658;-59
2022/03/03 00:09:10;;;;;;;7.00;4.90;;;;;;;4.10;55.05;100047.53;117401;1182;21844;-59
2022/03/03 00:11:39;;;;;;;6.90;4.90;;;;;;;4.08;55.01;100046.98;117305;1184;21847;-55
2022/03/03 00:14:07;;;;;;;8.80;5.70;;;;;;;4.05;55.00;100044.88;117364;1182;22712;-55
2022/03/03 00:16:38;;;;;;;10.30;5.90;;;;;;;4.02;54.87;100043.64;117399;1182;21847;-55
2022/03/03 00:19:07;;;;;;;9.70;5.80;;;;;;;3.98;55.11;100043.43;117318;1185;21975;-55
2022/03/03 00:21:37;;;;;;;6.90;5.10;;;;;;;3.95;55.04;100045.49;117381;1180;22910;-55
2022/03/03 00:24:06;;;;;;;8.60;5.80;;;;;;;3.93;55.15;100044.44;117436;1185;21892;-55
2022/03/03 00:26:34;;;;;;;10.10;5.40;;;;;;;3.95;55.22;100042.88;117321;1182;22020;-55
2022/03/03 00:29:02;;;;;;;8.50;5.90;;;;;;;3.95;55.18;100038.71;117347;1185;21887;-55
2022/03/03 00:31:31;;;;;;;7.40;4.90;;;;;;;3.96;55.28;100036.48;117331;1185;23541;-55
2022/03/03 00:34:00;;;;;;;8.20;5.70;;;;;;;3.97;55.24;100031.98;117409;1184;22084;-58
2022/03/03 00:36:28;;;;;;;12.10;5.80;;;;;;;3.98;55.19;100035.27;117420;1185;21900;-59
2022/03/03 00:38:57;;;;;;;7.80;5.30;;;;;;;3.98;55.27;100036.65;117245;1183;22914;-55
2022/03/03 00:41:26;;;;;;;8.40;5.60;;;;;;;4.00;55.22;100039.63;117574;1182;23355;-59
2022/03/03 00:43:55;;;;;;;8.30;5.50;;;;;;;3.99;55.36;100034.92;117371;1184;23445;-59
2022/03/03 00:46:27;;;;;;;9.90;6.40;;;;;;;3.99;55.38;100036.31;117397;1182;21932;-59
2022/03/03 00:48:56;;;;;;;10.50;6.00;;;;;;;4.02;55.49;100032.37;117433;1185;21837;-55
2022/03/03 00:51:25;;;;;;;9.80;7.00;;;;;;;4.07;55.37;100028.75;117426;1185;22070;-59
2022/03/03 00:53:53;;;;;;;9.30;6.70;;;;;;;4.10;55.40;100029.48;117315;1183;21849;-60
2022/03/03 00:56:22;;;;;;;9.80;6.70;;;;;;;4.12;55.43;100029.14;117364;1182;21852;-55
2022/03/03 00:58:50;;;;;;;8.90;6.20;;;;;;;4.12;55.39;100027.05;117396;1185;22339;-59
2022/03/03 01:01:19;;;;;;;9.20;6.40;;;;;;;4.11;55.31;100023.94;117401;1185;21888;-55
2022/03/03 01:03:49;;;;;;;9.40;6.70;;;;;;;4.14;55.41;100023.08;117360;1184;23493;-57
2022/03/03 01:06:18;;;;;;;11.10;6.70;;;;;;;4.16;55.35;100022.06;117426;1186;21850;-55
2022/03/03 01:08:47;;;;;;;9.90;6.50;;;;;;;4.17;55.42;100023.11;117349;1185;23614;-56
2022/03/03 01:11:15;;;;;;;9.20;7.00;;;;;;;4.19;55.51;100022.95;117359;1184;22030;-56
2022/03/03 01:13:44;;;;;;;9.80;6.80;;;;;;;4.22;55.43;100020.19;117476;1180;21868;-60
2022/03/03 01:16:12;;;;;;;11.00;6.50;;;;;;;4.24;55.22;100014.13;117341;1184;21835;-55
2022/03/03 01:18:42;;;;;;;9.10;6.00;;;;;;;4.26;55.51;100014.67;117395;1185;21895;-59
2022/03/03 01:21:11;;;;;;;9.80;7.10;;;;;;;4.27;55.39;100009.30;117422;1184;21842;-59
2022/03/03 01:23:40;;;;;;;11.90;6.00;;;;;;;4.27;55.37;100010.68;117397;1185;21966;-55
2022/03/03 01:26:08;;;;;;;9.20;6.50;;;;;;;4.26;55.38;100009.11;117378;1182;21876;-59
2022/03/03 01:28:37;;;;;;;8.10;5.70;;;;;;;4.25;55.25;100005.28;117489;1183;22514;-56
2022/03/03 01:31:05;;;;;;;9.00;5.20;;;;;;;4.26;55.40;100003.88;117442;1184;23606;-55
2022/03/03 01:33:34;;;;;;;9.30;6.20;;;;;;;4.24;55.33;100003.71;117340;1185;22982;-60
2022/03/03 01:36:03;;;;;;;10.40;5.60;;;;;;;4.27;55.10;100004.08;117398;1185;21877;-55
2022/03/03 01:38:31;;;;;;;7.90;5.70;;;;;;;4.28;55.28;100002.88;117340;1185;21858;-59
2022/03/03 01:41:00;;;;;;;10.30;6.60;;;;;;;4.29;55.39;100004.80;117345;1176;23430;-59
2022/03/03 01:43:28;;;;;;;10.20;6.20;;;;;;;4.30;55.32;100008.45;117297;1182;21852;-60
2022/03/03 01:45:57;;;;;;;11.10;7.30;;;;;;;4.31;55.28;100005.15;117421;1183;22975;-55
2022/03/03 01:48:26;;;;;;;9.20;6.10;;;;;;;4.32;55.29;100001.16;117425;1185;21897;-59
2022/03/03 01:50:54;;;;;;;9.90;6.40;;;;;;;4.33;55.48;99998.75;117348;1182;21890;-54
2022/03/03 01:53:23;;;;;;;8.10;5.00;;;;;;;4.36;55.57;99997.71;117362;1184;21837;-56
2022/03/03 01:55:52;;;;;;;8.60;5.90;;;;;;;4.38;55.57;99999.13;117371;1184;22731;-59
2022/03/03 01:58:21;;;;;;;10.70;7.00;;;;;;;4.39;55.52;99998.45;117462;1184;21851;-59
2022/03/03 02:00:51;;;;;;;8.50;5.70;;;;;;;4.42;55.39;99999.14;117382;1180;22315;-59
2022/03/03 02:03:20;;;;;;;7.40;5.90;;;;;;;4.44;55.55;99999.16;117384;1184;24133;-56
2022/03/03 02:05:49;;;;;;;9.80;6.80;;;;;;;4.47;55.43;99997.09;117387;1184;21846;-57
2022/03/03 02:08:18;;;;;;;9.80;6.00;;;;;;;4.49;55.38;99996.23;117394;1185;21847;-59
2022/03/03 02:10:46;;;;;;;10.10;6.10;;;;;;;4.49;55.44;99994.33;117384;1185;21945;-59
2022/03/03 02:13:15;;;;;;;10.90;6.20;;;;;;;4.52;55.66;99992.09;117362;1185;21846;-59
2022/03/03 02:15:51;;;;;;;10.30;5.70;;;;;;;4.53;55.52;99989.48;117387;1182;22909;-58
2022/03/03 02:18:20;;;;;;;10.20;6.10;;;;;;;4.54;55.61;99984.81;117385;1182;22652;-60
2022/03/03 02:20:53;;;;;;;8.30;5.70;;;;;;;4.55;55.60;99986.55;117257;1185;21894;-59
2022/03/03 02:23:21;;;;;;;9.00;5.50;;;;;;;4.49;55.53;99988.94;117253;1181;23413;-55
2022/03/03 02:25:51;;;;;;;10.10;6.00;;;;;;;4.46;55.65;99982.83;117615;1185;22982;-56
2022/03/03 02:28:20;;;;;;;9.70;6.50;;;;;;;4.44;55.62;99980.90;117091;1186;23672;-55
2022/03/03 02:30:48;;;;;;;7.10;5.40;;;;;;;4.43;55.50;99983.51;117376;1184;22054;-59
2022/03/03 02:33:17;;;;;;;9.20;6.50;;;;;;;4.41;55.59;99980.55;117387;1180;22996;-59
2022/03/03 02:35:47;;;;;;;9.50;6.30;;;;;;;4.40;55.49;99981.42;117346;1185;21972;-55
2022/03/03 02:38:16;;;;;;;8.80;5.70;;;;;;;4.39;55.56;99975.85;117387;1183;23310;-55
2022/03/03 02:40:45;;;;;;;10.60;7.30;;;;;;;4.38;55.59;99980.36;117372;1184;22059;-59
2022/03/03 02:43:13;;;;;;;10.40;6.00;;;;;;;4.38;55.56;99976.19;117409;1183;22777;-59
2022/03/03 02:45:42;;;;;;;11.50;7.60;;;;;;;4.37;55.66;99974.63;117409;1182;23548;-60
2022/03/03 02:48:11;;;;;;;8.70;6.50;;;;;;;4.37;55.50;99969.76;117286;1183;22991;-55
2022/03/03 02:50:39;;;;;;;11.90;6.80;;;;;;;4.37;55.68;99971.67;117366;1185;21849;-59
2022/03/03 02:53:08;;;;;;;10.20;6.40;;;;;;;4.36;55.65;99972.01;117485;1183;23990;-55
2022/03/03 02:55:36;;;;;;;10.00;7.20;;;;;;;4.36;55.59;99966.97;117315;1183;24171;-60
2022/03/03 02:58:05;;;;;;;11.80;7.80;;;;;;;4.36;55.77;99968.53;117380;1184;23581;-59
2022/03/03 03:00:39;;;;;;;11.70;7.70;;;;;;;4.35;55.83;99966.27;117363;1185;23673;-55
2022/03/03 03:03:07;;;;;;;10.40;7.00;;;;;;;4.35;55.58;99966.62;117288;1185;21843;-55
2022/03/03 03:05:36;;;;;;;10.30;6.80;;;;;;;4.36;55.74;99969.74;117513;1185;23703;-55
2022/03/03 03:08:05;;;;;;;11.20;7.30;;;;;;;4.37;55.80;99974.27;117396;1184;21952;-59
2022/03/03 03:10:34;;;;;;;11.10;6.90;;;;;;;4.38;55.63;99972.20;117403;1187;21855;-59
2022/03/03 03:13:04;;;;;;;9.30;7.00;;;;;;;4.38;55.68;99976.90;117396;1185;23501;-59
2022/03/03 03:15:33;;;;;;;9.80;6.80;;;;;;;4.39;55.64;99972.20;117344;1184;21843;-59
2022/03/03 03:18:14;;;;;;;12.20;6.50;;;;;;;4.40;55.67;99972.03;117327;1183;21877;-57
2022/03/03 03:20:45;;;;;;;9.50;7.10;;;;;;;4.40;55.75;99968.23;117419;1185;21846;-59
2022/03/03 03:23:15;;;;;;;11.10;6.80;;;;;;;4.44;55.79;99964.92;117441;1185;21837;-59
2022/03/03 03:25:43;;;;;;;10.20;7.30;;;;;;;4.43;55.83;99956.75;117412;1185;22608;-59
2022/03/03 03:28:13;;;;;;;9.20;7.10;;;;;;;4.43;55.77;99957.63;117378;1185;22912;-55
2022/03/03 03:30:45;;;;;;;10.80;7.00;;;;;;;4.46;55.77;99959.21;117317;1185;21891;-55
2022/03/03 03:33:13;;;;;;;13.70;6.80;;;;;;;4.49;55.59;99957.83;117417;1184;21869;-57
2022/03/03 03:35:44;;;;;;;11.20;6.80;;;;;;;4.50;55.53;99955.41;117363;1184;21893;-58
2022/03/03 03:38:13;;;;;;;11.80;6.30;;;;;;;4.50;55.77;99955.23;117403;1185;22997;-58
2022/03/03 03:40:42;;;;;;;10.90;6.70;;;;;;;4.50;55.64;99954.89;117337;1184;21864;-54
2022/03/03 03:43:10;;;;;;;10.10;6.60;;;;;;;4.51;55.72;99953.33;117355;1182;21851;-54
2022/03/03 03:45:39;;;;;;;8.30;6.30;;;;;;;4.51;55.90;99952.98;117438;1182;22906;-54
2022/03/03 03:48:07;;;;;;;8.00;5.90;;;;;;;4.52;55.68;99951.95;117446;1185;22951;-55
2022/03/03 03:50:38;;;;;;;8.30;5.70;;;;;;;4.52;55.67;99954.03;117343;1185;21847;-55
2022/03/03 03:53:06;;;;;;;9.40;6.00;;;;;;;4.53;55.54;99950.56;117410;1185;22611;-54
2022/03/03 03:55:35;;;;;;;7.50;5.20;;;;;;;4.52;55.69;99949.33;117372;1183;21887;-59
2022/03/03 03:58:03;;;;;;;8.50;5.40;;;;;;;4.53;55.62;99946.56;117370;1184;23603;-54
2022/03/03 04:00:32;;;;;;;9.50;5.30;;;;;;;4.50;55.63;99940.64;117380;1185;23877;-59
2022/03/03 04:03:01;;;;;;;8.20;5.30;;;;;;;4.48;55.75;99944.09;117397;1185;22912;-54
2022/03/03 04:05:30;;;;;;;8.70;6.00;;;;;;;4.49;55.74;99945.50;117374;1185;21847;-58
2022/03/03 04:07:58;;;;;;;7.60;5.50;;;;;;;4.50;55.69;99944.64;117368;1184;21897;-54
2022/03/03 04:10:38;;;;;;;9.80;5.50;;;;;;;4.49;55.72;99942.89;117362;1186;21846;-54
2022/03/03 04:13:07;;;;;;;12.60;7.70;;;;;;;4.47;55.62;99945.83;117386;1182;23466;-54
2022/03/03 04:15:39;;;;;;;8.10;5.60;;;;;;;4.51;55.75;99947.25;117406;1184;21820;-54
2022/03/03 04:18:07;;;;;;;10.30;5.60;;;;;;;4.52;55.78;99948.12;117385;1185;22159;-59
2022/03/03 04:20:36;;;;;;;6.60;4.60;;;;;;;4.52;55.52;99947.25;117394;1183;21851;-58
2022/03/03 04:23:05;;;;;;;7.60;5.10;;;;;;;4.51;55.58;99946.73;117315;1185;21847;-59
2022/03/03 04:25:34;;;;;;;6.80;4.90;;;;;;;4.55;55.65;99941.02;117391;1184;21836;-54
2022/03/03 04:28:02;;;;;;;6.20;4.90;;;;;;;4.58;55.45;99935.83;117418;1183;21850;-59
2022/03/03 04:30:31;;;;;;;9.40;5.50;;;;;;;4.54;55.67;99935.10;117356;1180;23696;-55
2022/03/03 04:32:59;;;;;;;7.00;4.80;;;;;;;4.48;55.53;99935.94;117421;1185;21856;-54
2022/03/03 04:35:28;;;;;;;8.40;5.20;;;;;;;4.43;55.74;99941.30;117406;1185;21892;-55
2022/03/03 04:38:03;;;;;;;8.00;5.30;;;;;;;4.45;55.54;99940.09;117357;1185;22498;-59
2022/03/03 04:40:32;;;;;;;7.20;4.70;;;;;;;4.42;55.67;99941.64;117324;1184;21856;-54
2022/03/03 04:43:00;;;;;;;7.30;4.70;;;;;;;4.42;55.78;99938.34;117387;1184;22921;-54
2022/03/03 04:45:28;;;;;;;6.60;4.50;;;;;;;4.38;55.80;99936.23;117407;1185;24261;-59
2022/03/03 04:47:57;;;;;;;8.00;5.10;;;;;;;4.37;55.88;99940.06;117450;1182;21869;-54
2022/03/03 04:50:26;;;;;;;6.60;4.80;;;;;;;4.37;55.61;99940.05;117462;1185;23484;-57
2022/03/03 04:52:54;;;;;;;8.90;5.50;;;;;;;4.40;55.69;99939.37;117361;1184;23579;-58
2022/03/03 04:55:23;;;;;;;9.20;5.60;;;;;;;4.40;55.77;99937.46;117369;1185;23579;-58
2022/03/03 04:57:51;;;;;;;12.40;5.40;;;;;;;4.39;55.73;99936.06;117352;1185;23498;-54
2022/03/03 05:00:20;;;;;;;8.90;4.60;;;;;;;4.39;55.69;99937.80;117278;1184;21969;-54
2022/03/03 05:02:49;;;;;;;12.20;4.80;;;;;;;4.42;55.84;99938.69;117356;1183;21839;-58
2022/03/03 05:05:18;;;;;;;7.10;4.80;;;;;;;4.50;55.70;99940.64;117398;1186;21873;-59
2022/03/03 05:07:48;;;;;;;9.80;4.40;;;;;;;4.55;55.81;99935.11;117386;1182;21849;-55
2022/03/03 05:10:17;;;;;;;11.30;4.70;;;;;;;4.62;55.96;99937.41;117366;1184;22051;-59
2022/03/03 05:12:46;;;;;;;17.90;4.90;;;;;;;4.67;56.06;99941.08;117376;1183;21898;-58
2022/03/03 05:15:14;;;;;;;9.90;4.30;;;;;;;4.71;55.99;99944.40;117367;1185;22308;-55
2022/03/03 05:17:43;;;;;;;8.10;3.90;;;;;;;4.74;55.92;99943.02;117365;1184;21834;-58
2022/03/03 05:20:13;;;;;;;7.00;3.80;;;;;;;4.75;55.88;99944.42;117378;1185;21983;-58
2022/03/03 05:22:41;;;;;;;6.90;4.00;;;;;;;4.78;55.88;99946.86;117356;1184;21887;-54
2022/03/03 05:25:13;;;;;;;8.90;4.40;;;;;;;4.78;55.88;99948.42;117391;1182;22308;-53
2022/03/03 05:27:43;;;;;;;9.70;4.80;;;;;;;4.78;55.95;99953.29;117441;1186;21906;-55
2022/03/03 05:30:12;;;;;;;10.00;4.60;;;;;;;4.78;55.96;99953.98;117417;1182;23550;-58
2022/03/03 05:32:40;;;;;;;9.10;4.90;;;;;;;4.77;55.90;99951.73;117417;1185;21951;-59
2022/03/03 05:35:09;;;;;;;10.60;4.20;;;;;;;4.78;55.88;99953.30;117428;1183;21859;-54
2022/03/03 05:37:37;;;;;;;8.30;4.10;;;;;;;4.75;55.70;99953.98;117379;1185;24284;-55
2022/03/03 05:40:07;;;;;;;8.70;3.90;;;;;;;4.74;55.74;99951.02;117319;1184;24211;-56
2022/03/03 05:42:36;;;;;;;6.70;4.90;;;;;;;4.72;55.83;99954.66;117365;1185;23545;-58
2022/03/03 05:45:10;;;;;;;6.60;4.40;;;;;;;4.69;55.84;99955.68;117337;1184;23471;-59
2022/03/03 05:47:39;;;;;;;10.70;5.30;;;;;;;4.67;55.76;99955.14;117359;1182;21906;-58
2022/03/03 05:50:09;;;;;;;5.80;3.70;;;;;;;4.63;55.76;99958.44;117388;1176;21878;-55
2022/03/03 05:52:37;;;;;;;5.60;3.70;;;;;;;4.60;55.68;99960.34;117416;1185;22452;-55
2022/03/03 05:55:06;;;;;;;5.80;3.70;;;;;;;4.56;55.69;99966.58;117391;1185;22870;-55
2022/03/03 05:57:38;;;;;;;5.70;4.00;;;;;;;4.56;55.63;99966.39;117430;1179;23440;-55
2022/03/03 06:00:14;;;;;;;6.00;3.30;;;;;;;4.53;55.59;99966.91;117394;1185;22833;-59
2022/03/03 06:02:49;;;;;;;4.20;3.10;;;;;;;4.50;55.65;99966.54;117305;1185;21864;-59
2022/03/03 06:05:19;;;;;;;5.00;3.30;;;;;;;4.47;55.67;99964.77;117292;1177;21929;-58
2022/03/03 06:07:53;;;;;;;;;;;;;;;4.44;55.59;99967.71;117330;1182;21884;-56
2022/03/03 06:10:24;;;;;;;5.60;3.50;;;;;;;4.44;55.71;99970.48;117386;1185;23573;-55
2022/03/03 06:13:10;;;;;;;4.90;3.70;;;;;;;4.41;55.63;99969.79;117219;1184;22124;-54
2022/03/03 06:15:40;;;;;;;6.80;3.50;;;;;;;4.40;55.70;99969.61;118256;1182;23531;-59
2022/03/03 06:18:08;;;;;;;5.80;3.80;;;;;;;4.37;55.68;99972.36;117314;1186;23614;-55
2022/03/03 06:20:37;;;;;;;6.30;3.70;;;;;;;4.37;55.65;99971.15;117300;1182;22787;-55
2022/03/03 06:23:06;;;;;;;4.60;3.00;;;;;;;4.35;55.78;99971.14;117264;1183;23662;-59
2022/03/03 06:25:36;;;;;;;4.70;3.40;;;;;;;4.28;55.79;99970.04;117428;1185;21947;-54
2022/03/03 06:28:05;;;;;;;6.70;3.70;;;;;;;4.26;55.82;99967.25;117454;1185;24652;-54
2022/03/03 06:30:34;;;;;;;5.90;3.30;;;;;;;4.27;56.08;99963.96;117413;1185;22979;-55
2022/03/03 06:33:03;;;;;;;4.20;3.20;;;;;;;4.25;55.83;99964.11;117340;1186;22902;-60
2022/03/03 06:35:35;;;;;;;12.00;5.60;;;;;;;4.23;55.95;99966.36;117443;1184;21861;-59
2022/03/03 06:38:06;;;;;;;4.60;3.40;;;;;;;4.31;56.24;99966.06;117265;1182;24152;-55
2022/03/03 06:40:35;;;;;;;4.80;3.20;;;;;;;4.34;56.17;99966.79;117388;1186;21931;-54
2022/03/03 06:43:04;;;;;;;5.40;3.30;;;;;;;4.33;55.95;99964.69;117463;1186;21842;-56
2022/03/03 06:45:32;;;;;;;8.00;3.10;;;;;;;4.28;55.85;99966.40;117393;1185;21851;-59
2022/03/03 06:48:02;;;;;;;3.90;3.00;;;;;;;4.26;55.87;99968.29;117391;1183;21987;-55
2022/03/03 06:50:36;;;;;;;4.50;3.00;;;;;;;4.23;55.94;99963.05;117290;1185;21976;-61
2022/03/03 06:53:04;;;;;;;4.80;2.80;;;;;;;4.17;55.77;99961.11;117415;1183;21950;-56
2022/03/03 06:55:34;;;;;;;4.40;3.10;;;;;;;4.13;55.57;99960.39;117325;1185;22750;-56
2022/03/03 06:58:03;;;;;;;3.70;2.60;;;;;;;4.09;55.83;99959.31;117499;1188;21955;-57
2022/03/03 07:00:34;;;;;;;4.60;2.30;;;;;;;4.03;55.60;99956.66;117463;1183;21824;-56
2022/03/03 07:03:04;;;;;;;3.60;2.20;;;;;;;4.00;55.67;99956.82;117455;1185;21857;-61
2022/03/03 07:05:34;;;;;;;3.40;2.40;;;;;;;3.95;55.74;99957.30;117395;1186;23522;-61
2022/03/03 07:08:03;;;;;;;3.40;2.10;;;;;;;3.91;55.74;99950.50;117395;1183;21874;-60
2022/03/03 07:10:32;;;;;;;2.90;2.00;;;;;;;3.86;55.75;99952.19;117350;1186;21838;-57
2022/03/03 07:13:01;;;;;;;3.90;2.40;;;;;;;3.85;55.88;99952.53;118046;1186;21851;-57
2022/03/03 07:15:29;;;;;;;7.20;2.20;;;;;;;3.89;55.83;99950.66;117352;1182;21894;-62
2022/03/03 07:18:19;;;;;;;3.00;2.00;;;;;;;3.91;55.73;99953.27;117540;1182;23518;-62
2022/03/03 07:21:24;;;;;;;3.90;2.10;;;;;;;3.93;55.72;99953.98;117328;1181;21901;-62
2022/03/03 07:24:08;;;;;;;3.00;1.90;;;;;;;3.95;55.68;99954.52;117355;1185;21843;-57
2022/03/03 07:26:37;;;;;;;2.50;1.50;;;;;;;3.97;55.81;99955.58;117420;1185;21961;-57
2022/03/03 07:29:06;;;;;;;3.50;2.10;;;;;;;3.99;55.88;99953.68;117131;1189;21935;-57
2022/03/03 07:31:41;;;;;;;3.00;2.10;;;;;;;3.96;55.74;99956.98;117182;1189;21881;-56
2022/03/03 07:34:09;;;;;;;6.40;3.60;;;;;;;3.95;55.74;99957.13;117461;1185;21851;-62
2022/03/03 07:36:40;;;;;;;28.90;14.80;;;;;;;3.95;55.95;99954.70;117146;1185;23459;-56
2022/03/03 07:39:11;;;;;;;12.70;8.40;;;;;;;3.97;55.77;99952.29;117325;1184;22700;-55
2022/03/03 07:41:40;;;;;;;13.10;8.50;;;;;;;3.99;55.97;99949.68;117458;1184;22828;-56
2022/03/03 07:44:08;;;;;;;11.50;8.30;;;;;;;4.02;55.91;99946.58;117358;1184;21969;-55
2022/03/03 07:46:37;;;;;;;11.20;8.50;;;;;;;4.06;56.00;99945.75;117393;1185;23409;-62
2022/03/03 07:49:06;;;;;;;10.10;7.70;;;;;;;4.13;55.93;99948.23;117367;1183;21847;-55
2022/03/03 07:51:35;;;;;;;8.30;6.30;;;;;;;4.24;55.99;99947.79;117121;1185;21849;-62
2022/03/03 07:54:04;;;;;;;5.50;3.50;;;;;;;4.33;56.15;99949.40;117139;1186;21821;-56
2022/03/03 07:56:37;;;;;;;5.40;4.30;;;;;;;4.41;56.12;99945.63;117422;1183;22747;-56
2022/03/03 07:59:12;;;;;;;8.00;4.70;;;;;;;4.50;56.03;99951.59;117454;1182;23421;-59
2022/03/03 08:01:41;;;;;;;6.10;5.10;;;;;;;4.56;56.05;99944.15;117409;1185;22312;-56
2022/03/03 08:04:14;;;;;;;6.10;4.40;;;;;;;4.62;56.14;99945.92;117258;1185;23928;-56
2022/03/03 08:06:44;;;;;;;6.40;4.10;;;;;;;4.68;56.20;99947.34;117436;1185;21844;-56
2022/03/03 08:09:13;;;;;;;7.00;5.30;;;;;;;4.75;56.23;99946.50;117473;1182;23541;-61
2022/03/03 08:11:42;;;;;;;5.70;3.60;;;;;;;4.82;56.10;99946.89;117249;1185;22929;-60
2022/03/03 08:14:11;;;;;;;5.00;3.50;;;;;;;4.87;56.16;99940.29;117355;1185;23648;-61
2022/03/03 08:16:40;;;;;;;5.20;3.50;;;;;;;4.91;56.12;99942.39;117365;1183;23669;-56
2022/03/03 08:19:09;;;;;;;5.90;4.10;;;;;;;4.96;56.35;99941.55;117358;1182;23612;-55
2022/03/03 08:21:38;;;;;;;5.30;3.80;;;;;;;5.02;56.08;99941.05;117316;1185;21839;-60
2022/03/03 08:24:07;;;;;;;34.70;20.90;;;;;;;5.08;56.24;99943.67;117362;1185;22910;-56
2022/03/03 08:26:35;;;;;;;15.40;10.30;;;;;;;5.16;56.31;99942.65;117185;1185;21897;-56
2022/03/03 08:29:04;;;;;;;9.60;6.90;;;;;;;5.26;56.37;99944.08;117223;1180;21849;-60
2022/03/03 08:31:39;;;;;;;7.60;5.00;;;;;;;5.35;56.35;99944.61;117335;1186;23550;-61
2022/03/03 08:34:25;;;;;;;7.00;4.90;;;;;;;5.44;56.19;99943.77;117312;1185;23634;-60
2022/03/03 08:37:00;;;;;;;6.70;4.70;;;;;;;5.51;56.54;99949.16;117365;1185;22912;-60
2022/03/03 08:39:29;;;;;;;7.30;5.00;;;;;;;5.60;56.40;99952.30;117329;1182;23558;-61
2022/03/03 08:42:01;;;;;;;6.60;4.70;;;;;;;5.67;56.40;99956.50;117243;1185;22007;-56
2022/03/03 08:44:49;;;;;;;;;;;;;;;5.76;56.35;99955.97;117288;1185;22910;-56
2022/03/03 08:47:18;;;;;;;7.30;4.90;;;;;;;5.86;56.48;99956.34;117354;1185;21840;-61
2022/03/03 08:49:46;;;;;;;7.90;5.40;;;;;;;5.91;56.29;99957.21;117355;1182;21858;-56
2022/03/03 08:52:15;;;;;;;8.10;5.30;;;;;;;5.97;56.49;99954.23;117291;1186;21858;-58
2022/03/03 08:54:44;;;;;;;8.00;5.40;;;;;;;6.01;56.56;99949.38;117399;1185;24165;-60
2022/03/03 08:57:13;;;;;;;9.10;5.30;;;;;;;6.06;56.55;99946.44;117414;1186;21853;-56
2022/03/03 08:59:41;;;;;;;7.60;5.80;;;;;;;6.11;56.64;99945.73;117396;1184;21850;-57
2022/03/03 09:02:12;;;;;;;8.70;5.90;;;;;;;6.15;56.62;99950.27;117270;1186;22301;-56
2022/03/03 09:04:41;;;;;;;11.20;6.10;;;;;;;6.19;56.39;99959.65;117307;1185;22895;-56
2022/03/03 09:07:09;;;;;;;7.70;5.70;;;;;;;6.24;56.66;99958.08;117373;1186;21845;-56
2022/03/03 09:09:46;;;;;;;8.60;5.70;;;;;;;6.30;56.47;99962.09;117334;1182;21856;-58
2022/03/03 09:12:15;;;;;;;11.00;6.00;;;;;;;6.39;56.45;99963.82;117370;1186;22855;-60
2022/03/03 09:14:43;;;;;;;7.90;6.00;;;;;;;6.45;56.25;99966.94;117366;1182;21866;-60
2022/03/03 09:17:12;;;;;;;9.50;6.30;;;;;;;6.52;56.35;99968.33;117326;1185;21848;-60
2022/03/03 09:19:41;;;;;;;7.10;5.40;;;;;;;6.56;56.45;99966.40;117366;1182;23632;-56
2022/03/03 09:22:10;;;;;;;9.40;7.10;;;;;;;6.58;56.27;99967.96;117297;1182;23449;-56
2022/03/03 09:24:38;;;;;;;10.10;6.50;;;;;;;6.62;56.50;99958.89;117168;1185;24265;-57
2022/03/03 09:27:08;;;;;;;8.10;6.60;;;;;;;6.63;56.26;99961.15;117327;1186;21840;-60
2022/03/03 09:29:37;;;;;;;9.90;6.80;;;;;;;6.65;56.41;99959.73;117341;1185;21845;-60
2022/03/03 09:32:06;;;;;;;10.50;6.90;;;;;;;6.68;56.53;99956.42;117356;1182;23469;-56
2022/03/03 09:34:34;;;;;;;9.50;7.10;;;;;;;6.71;56.24;99957.11;117374;1182;21857;-60
2022/03/03 09:37:03;;;;;;;8.40;5.90;;;;;;;6.76;56.26;99959.89;117372;1183;23460;-56
2022/03/03 09:39:31;;;;;;;7.30;5.80;;;;;;;6.82;56.27;99957.59;117279;1182;22804;-56
2022/03/03 09:42:00;;;;;;;8.70;5.70;;;;;;;6.91;56.42;99957.56;117297;1186;21853;-56
2022/03/03 09:44:29;;;;;;;8.30;6.00;;;;;;;7.01;56.61;99956.13;117323;1185;21857;-56
2022/03/03 09:46:57;;;;;;;7.70;5.90;;;;;;;7.12;56.70;99955.36;117292;1185;24179;-59
2022/03/03 09:49:26;;;;;;;7.40;5.50;;;;;;;7.20;56.82;99956.56;117166;1186;21851;-60
2022/03/03 09:51:55;;;;;;;6.80;5.20;;;;;;;7.25;56.72;99953.21;117256;1183;21919;-60
2022/03/03 09:54:24;;;;;;;8.00;5.50;;;;;;;7.32;56.74;99949.51;117437;1185;21840;-59
2022/03/03 09:56:52;;;;;;;8.70;7.10;;;;;;;7.36;56.60;99950.88;117396;1185;23635;-57
2022/03/03 09:59:21;;;;;;;9.30;7.40;;;;;;;7.36;56.52;99948.09;117338;1185;23257;-57
2022/03/03 10:01:49;;;;;;;10.30;6.50;;;;;;;7.37;56.56;99947.39;117298;1184;23428;-56
2022/03/03 10:04:23;;;;;;;11.50;7.30;;;;;;;7.43;56.77;99944.20;117275;1185;21856;-59
2022/03/03 10:06:52;;;;;;;10.50;7.40;;;;;;;7.56;56.75;99936.60;117320;1182;23551;-56
2022/03/03 10:09:22;;;;;;;8.50;7.00;;;;;;;7.66;56.76;99933.73;117439;1185;22927;-59
2022/03/03 10:12:04;;;;;;;10.40;7.90;;;;;;;7.74;56.56;99933.69;117412;1182;22742;-60
2022/03/03 10:14:35;;;;;;;9.90;7.60;;;;;;;7.79;56.77;99932.25;117419;1182;21917;-59
2022/03/03 10:17:05;;;;;;;;;;;;;;;7.82;56.61;99933.09;117386;1186;24103;-59
2022/03/03 10:19:56;;;;;;;10.00;7.20;;;;;;;7.87;56.60;99923.63;117274;1183;21862;-59
2022/03/03 10:22:46;;;;;;;14.90;7.30;;;;;;;7.89;56.58;99919.06;117371;1186;23439;-59
2022/03/03 10:25:26;;;;;;;11.20;8.60;;;;;;;8.00;56.63;99911.98;117125;1185;22922;-59
2022/03/03 10:27:55;;;;;;;12.30;8.30;;;;;;;8.09;56.82;99911.56;117195;1179;21841;-56
2022/03/03 10:30:25;;;;;;;11.30;9.20;;;;;;;8.17;56.84;99910.59;117174;1186;23012;-58
2022/03/03 10:32:55;;;;;;;9.40;7.50;;;;;;;8.26;56.84;99909.64;117440;1180;23674;-58
2022/03/03 10:35:24;;;;;;;10.50;8.60;;;;;;;8.26;56.92;99907.36;117208;1183;23568;-57
2022/03/03 10:37:53;;;;;;;12.80;9.00;;;;;;;8.28;56.93;99903.66;117308;1183;21862;-57
2022/03/03 10:40:21;;;;;;;9.50;7.60;;;;;;;8.36;56.99;99897.45;117217;1184;23673;-57
2022/03/03 10:42:50;;;;;;;9.10;7.30;;;;;;;8.52;57.12;99896.80;117333;1182;22024;-59
2022/03/03 10:45:21;;;;;;;8.70;7.30;;;;;;;8.68;57.22;99893.80;117343;1182;23429;-57
2022/03/03 10:47:59;;;;;;;11.70;7.10;;;;;;;8.85;57.37;99891.50;119325;1184;21730;-59
2022/03/03 10:50:48;;;;;;;8.70;6.90;;;;;;;9.01;57.21;99888.14;117331;1185;22976;-59
2022/03/03 10:53:19;;;;;;;9.70;6.90;;;;;;;9.12;57.20;99885.88;117424;1185;21948;-58
2022/03/03 10:56:08;;;;;;;7.70;6.00;;;;;;;9.13;56.99;99884.98;117362;1182;23429;-58
2022/03/03 10:58:48;;;;;;;8.60;6.30;;;;;;;9.15;56.88;99883.91;117275;1185;21851;-57
2022/03/03 11:01:18;;;;;;;7.20;6.20;;;;;;;9.19;56.92;99883.33;117299;1182;23531;-58
2022/03/03 11:03:50;;;;;;;7.40;5.80;;;;;;;9.18;56.87;99883.19;117362;1182;21843;-58
2022/03/03 11:06:30;;;;;;;7.00;5.60;;;;;;;9.15;56.89;99883.38;117308;1188;21846;-58
2022/03/03 11:08:59;;;;;;;7.80;5.20;;;;;;;9.11;56.70;99883.27;117369;1184;21849;-57
2022/03/03 11:11:28;;;;;;;7.00;5.40;;;;;;;9.05;56.65;99882.29;117411;1182;22965;-59
2022/03/03 11:13:59;;;;;;;6.10;4.80;;;;;;;8.98;56.55;99880.49;117255;1185;21851;-59
2022/03/03 11:16:28;;;;;;;6.50;4.90;;;;;;;8.89;56.58;99886.54;117241;1185;21882;-57
2022/03/03 11:18:56;;;;;;;7.90;5.50;;;;;;;8.84;56.61;99881.55;117381;1182;22837;-57
2022/03/03 11:21:25;;;;;;;6.90;5.30;;;;;;;8.78;56.55;99883.55;117472;1185;22785;-57
2022/03/03 11:23:58;;;;;;;6.80;5.50;;;;;;;8.73;56.47;99882.03;117375;1185;21862;-57
2022/03/03 11:26:34;;;;;;;7.70;5.60;;;;;;;8.67;56.72;99880.88;117354;1185;21956;-59
2022/03/03 11:29:12;;;;;;;7.40;4.80;;;;;;;8.69;57.07;99887.31;117312;1184;23532;-59
2022/03/03 11:31:45;;;;;;;7.20;5.60;;;;;;;8.76;56.91;99880.77;117384;1186;21876;-59
2022/03/03 11:34:26;;;;;;;6.90;5.40;;;;;;;8.70;56.90;99878.73;117326;1182;23683;-58
2022/03/03 11:37:07;;;;;;;5.40;4.70;;;;;;;8.67;56.91;99876.33;117285;1182;23527;-57
2022/03/03 11:39:37;;;;;;;11.40;5.70;;;;;;;8.69;56.94;99877.70;117345;1181;22674;-57
2022/03/03 11:42:29;;;;;;;5.90;4.90;;;;;;;8.74;57.05;99875.55;117343;1185;21862;-58
2022/03/03 11:45:10;;;;;;;7.50;4.80;;;;;;;8.82;57.03;99872.30;117242;1185;23456;-58
2022/03/03 11:47:45;;;;;;;7.10;5.40;;;;;;;8.87;56.98;99873.61;117377;1183;23454;-57